sensor_id;sensor_type;location;lat;lon;timestamp;pressure;altitude;pressure_sealevel;temperature;humidity
61757;BME280;57225;61.460;24.060;2023-01-31T00:01:28;96710.84;;;-2.22;100.00
61757;BME280;57225;61.460;24.060;2023-01-31T00:04:13;96713.13;;;-2.20;100.00
61757;BME280;57225;61.460;24.060;2023-01-31T00:06:57;96711.63;;;-2.25;100.00
61757;BME280;57225;61.460;24.060;2023-01-31T00:09:42;96715.47;;;-2.19;100.00
61757;BME280;57225;61.460;24.060;2023-01-31T00:12:26;96713.91;;;-2.20;100.00
61757;BME280;57225;61.460;24.060;2023-01-31T00:15:11;96724.75;;;-2.13;100.00
61757;BME280;57225;61.460;24.060;2023-01-31T00:17:57;96734.53;;;-2.15;100.00
61757;BME280;57225;61.460;24.060;2023-01-31T00:20:42;96737.28;;;-2.19;100.00
61757;BME280;57225;61.460;24.060;2023-01-31T00:23:26;96741.16;;;-2.16;100.00
61757;BME280;57225;61.460;24.060;2023-01-31T00:29:05;96757.88;;;-2.11;100.00
61757;BME280;57225;61.460;24.060;2023-01-31T00:31:49;96771.47;;;-2.07;100.00
61757;BME280;57225;61.460;24.060;2023-01-31T00:34:34;96760.56;;;-2.07;100.00
61757;BME280;57225;61.460;24.060;2023-01-31T00:37:20;96768.41;;;-2.13;100.00
61757;BME280;57225;61.460;24.060;2023-01-31T00:40:04;96777.75;;;-2.14;100.00
61757;BME280;57225;61.460;24.060;2023-01-31T00:42:49;96774.25;;;-2.14;100.00
61757;BME280;57225;61.460;24.060;2023-01-31T00:45:33;96787.88;;;-2.11;100.00
61757;BME280;57225;61.460;24.060;2023-01-31T00:48:18;96791.03;;;-2.16;100.00
61757;BME280;57225;61.460;24.060;2023-01-31T00:51:03;96790.97;;;-2.09;100.00
61757;BME280;57225;61.460;24.060;2023-01-31T00:53:48;96778.22;;;-2.22;100.00
61757;BME280;57225;61.460;24.060;2023-01-31T00:56:33;96799.56;;;-2.14;100.00
61757;BME280;57225;61.460;24.060;2023-01-31T00:59:17;96796.06;;;-2.14;100.00
61757;BME280;57225;61.460;24.060;2023-01-31T01:02:02;96812.03;;;-2.13;100.00
61757;BME280;57225;61.460;24.060;2023-01-31T01:04:46;96796.91;;;-2.21;100.00
61757;BME280;57225;61.460;24.060;2023-01-31T01:07:30;96817.53;;;-2.20;100.00
61757;BME280;57225;61.460;24.060;2023-01-31T01:10:14;96824.91;;;-2.13;100.00
61757;BME280;57225;61.460;24.060;2023-01-31T01:12:59;96831.56;;;-2.18;100.00
61757;BME280;57225;61.460;24.060;2023-01-31T01:15:43;96838.94;;;-2.15;100.00
61757;BME280;57225;61.460;24.060;2023-01-31T01:18:28;96821.44;;;-2.17;100.00
61757;BME280;57225;61.460;24.060;2023-01-31T01:21:19;96829.97;;;-2.12;100.00
61757;BME280;57225;61.460;24.060;2023-01-31T01:24:07;96826.88;;;-2.21;100.00
61757;BME280;57225;61.460;24.060;2023-01-31T01:26:54;96847.16;;;-2.18;100.00
61757;BME280;57225;61.460;24.060;2023-01-31T01:29:39;96841.72;;;-2.25;100.00
61757;BME280;57225;61.460;24.060;2023-01-31T01:32:23;96854.59;;;-2.22;100.00
61757;BME280;57225;61.460;24.060;2023-01-31T01:35:08;96862.72;;;-2.19;100.00
61757;BME280;57225;61.460;24.060;2023-01-31T01:37:52;96868.22;;;-2.26;100.00
61757;BME280;57225;61.460;24.060;2023-01-31T01:40:37;96877.53;;;-2.20;100.00
61757;BME280;57225;61.460;24.060;2023-01-31T01:43:44;96882.25;;;-2.24;100.00
61757;BME280;57225;61.460;24.060;2023-01-31T01:46:42;96883.81;;;-2.23;100.00
61757;BME280;57225;61.460;24.060;2023-01-31T01:49:33;96897.81;;;-2.21;100.00
61757;BME280;57225;61.460;24.060;2023-01-31T01:52:20;96888.47;;;-2.27;100.00
61757;BME280;57225;61.460;24.060;2023-01-31T01:55:19;96900.97;;;-2.33;100.00
61757;BME280;57225;61.460;24.060;2023-01-31T01:58:13;96906.41;;;-2.26;100.00
61757;BME280;57225;61.460;24.060;2023-01-31T02:00:59;96920.44;;;-2.24;100.00
61757;BME280;57225;61.460;24.060;2023-01-31T02:03:45;96914.59;;;-2.26;100.00
61757;BME280;57225;61.460;24.060;2023-01-31T02:06:30;96913.06;;;-2.30;100.00
61757;BME280;57225;61.460;24.060;2023-01-31T02:09:24;96918.16;;;-2.36;100.00
61757;BME280;57225;61.460;24.060;2023-01-31T02:12:13;96934.47;;;-2.29;100.00
61757;BME280;57225;61.460;24.060;2023-01-31T02:14:57;96932.88;;;-2.26;100.00
61757;BME280;57225;61.460;24.060;2023-01-31T02:17:42;96946.13;;;-2.25;100.00
61757;BME280;57225;61.460;24.060;2023-01-31T02:41:36;96987.06;;;-2.32;100.00
61757;BME280;57225;61.460;24.060;2023-01-31T02:44:36;96969.13;;;-2.33;100.00
61757;BME280;57225;61.460;24.060;2023-01-31T02:50:55;96992.91;;;-2.30;100.00
61757;BME280;57225;61.460;24.060;2023-01-31T02:53:39;96991.75;;;-2.36;100.00
61757;BME280;57225;61.460;24.060;2023-01-31T02:56:30;96983.59;;;-2.43;100.00
61757;BME280;57225;61.460;24.060;2023-01-31T02:59:22;97003.41;;;-2.32;100.00
61757;BME280;57225;61.460;24.060;2023-01-31T03:02:11;96997.56;;;-2.34;100.00
61757;BME280;57225;61.460;24.060;2023-01-31T03:04:56;96990.63;;;-2.42;100.00
61757;BME280;57225;61.460;24.060;2023-01-31T03:07:41;97012.41;;;-2.35;100.00
61757;BME280;57225;61.460;24.060;2023-01-31T03:10:43;97013.97;;;-2.37;100.00
61757;BME280;57225;61.460;24.060;2023-01-31T03:14:09;97026.06;;;-2.42;100.00
61757;BME280;57225;61.460;24.060;2023-01-31T03:20:18;97039.31;;;-2.40;100.00
61757;BME280;57225;61.460;24.060;2023-01-31T03:23:07;97037.31;;;-2.40;100.00
61757;BME280;57225;61.460;24.060;2023-01-31T03:25:53;97040.47;;;-2.45;100.00
61757;BME280;57225;61.460;24.060;2023-01-31T03:28:39;97040.47;;;-2.45;100.00
61757;BME280;57225;61.460;24.060;2023-01-31T03:31:38;97036.94;;;-2.46;100.00
61757;BME280;57225;61.460;24.060;2023-01-31T03:34:24;97042.41;;;-2.49;100.00
61757;BME280;57225;61.460;24.060;2023-01-31T03:37:23;97046.72;;;-2.48;100.00
61757;BME280;57225;61.460;24.060;2023-01-31T03:40:37;97046.69;;;-2.52;100.00
61757;BME280;57225;61.460;24.060;2023-01-31T03:43:32;97072.41;;;-2.49;100.00
61757;BME280;57225;61.460;24.060;2023-01-31T03:46:28;97045.56;;;-2.61;100.00
61757;BME280;57225;61.460;24.060;2023-01-31T03:49:17;97079.41;;;-2.52;100.00
61757;BME280;57225;61.460;24.060;2023-01-31T03:52:05;97078.66;;;-2.59;100.00
61757;BME280;57225;61.460;24.060;2023-01-31T03:55:05;97071.63;;;-2.64;100.00
61757;BME280;57225;61.460;24.060;2023-01-31T03:57:53;97080.19;;;-2.58;100.00
61757;BME280;57225;61.460;24.060;2023-01-31T04:00:41;97083.72;;;-2.54;100.00
61757;BME280;57225;61.460;24.060;2023-01-31T04:03:26;97091.09;;;-2.58;100.00
61757;BME280;57225;61.460;24.060;2023-01-31T04:06:13;97096.19;;;-2.67;100.00
61757;BME280;57225;61.460;24.060;2023-01-31T04:08:58;97092.66;;;-2.71;100.00
61757;BME280;57225;61.460;24.060;2023-01-31T04:11:46;97078.66;;;-2.88;100.00
61757;BME280;57225;61.460;24.060;2023-01-31T04:14:31;97094.25;;;-2.85;100.00
61757;BME280;57225;61.460;24.060;2023-01-31T04:17:15;97117.59;;;-2.80;100.00
61757;BME280;57225;61.460;24.060;2023-01-31T04:20:00;97133.53;;;-2.75;100.00
61757;BME280;57225;61.460;24.060;2023-01-31T04:22:45;97134.31;;;-2.81;100.00
61757;BME280;57225;61.460;24.060;2023-01-31T04:25:29;97138.59;;;-2.80;100.00
61757;BME280;57225;61.460;24.060;2023-01-31T04:28:14;97136.25;;;-2.86;100.00
61757;BME280;57225;61.460;24.060;2023-01-31T04:30:58;97140.94;;;-2.86;100.00
61757;BME280;57225;61.460;24.060;2023-01-31T04:33:43;97125.72;;;-2.91;100.00
61757;BME280;57225;61.460;24.060;2023-01-31T04:36:27;97140.53;;;-2.88;100.00
61757;BME280;57225;61.460;24.060;2023-01-31T04:39:12;97137.81;;;-2.92;100.00
61757;BME280;57225;61.460;24.060;2023-01-31T04:41:57;97131.94;;;-3.01;100.00
61757;BME280;57225;61.460;24.060;2023-01-31T04:44:41;97140.13;;;-2.90;100.00
61757;BME280;57225;61.460;24.060;2023-01-31T04:47:26;97140.53;;;-2.99;100.00
61757;BME280;57225;61.460;24.060;2023-01-31T04:50:10;97144.00;;;-3.05;100.00
61757;BME280;57225;61.460;24.060;2023-01-31T04:52:55;97150.25;;;-2.94;100.00
61757;BME280;57225;61.460;24.060;2023-01-31T04:55:39;97158.00;;;-3.03;100.00
61757;BME280;57225;61.460;24.060;2023-01-31T04:58:24;97157.63;;;-3.12;100.00
61757;BME280;57225;61.460;24.060;2023-01-31T05:01:08;97152.13;;;-3.16;100.00
61757;BME280;57225;61.460;24.060;2023-01-31T05:03:53;97150.19;;;-3.19;100.00
61757;BME280;57225;61.460;24.060;2023-01-31T05:06:37;97154.88;;;-3.16;100.00
61757;BME280;57225;61.460;24.060;2023-01-31T05:09:21;97147.47;;;-3.15;100.00
61757;BME280;57225;61.460;24.060;2023-01-31T05:12:07;97160.72;;;-3.17;100.00
61757;BME280;57225;61.460;24.060;2023-01-31T05:14:52;97157.94;;;-3.28;100.00
61757;BME280;57225;61.460;24.060;2023-01-31T05:17:37;97168.84;;;-3.28;100.00
61757;BME280;57225;61.460;24.060;2023-01-31T05:20:21;97166.91;;;-3.28;100.00
61757;BME280;57225;61.460;24.060;2023-01-31T05:23:06;97196.13;;;-3.17;100.00
61757;BME280;57225;61.460;24.060;2023-01-31T05:25:50;97199.59;;;-3.24;100.00
61757;BME280;57225;61.460;24.060;2023-01-31T05:28:34;97195.72;;;-3.19;100.00
61757;BME280;57225;61.460;24.060;2023-01-31T05:31:19;97189.50;;;-3.23;100.00
61757;BME280;57225;61.460;24.060;2023-01-31T05:34:04;97195.34;;;-3.18;100.00
61757;BME280;57225;61.460;24.060;2023-01-31T05:36:48;97206.16;;;-3.29;100.00
61757;BME280;57225;61.460;24.060;2023-01-31T05:39:33;97196.81;;;-3.35;100.00
61757;BME280;57225;61.460;24.060;2023-01-31T05:42:17;97190.97;;;-3.40;100.00
61757;BME280;57225;61.460;24.060;2023-01-31T05:45:02;97204.19;;;-3.39;100.00
61757;BME280;57225;61.460;24.060;2023-01-31T05:47:47;97208.47;;;-3.38;100.00
61757;BME280;57225;61.460;24.060;2023-01-31T05:50:32;97212.38;;;-3.39;100.00
61757;BME280;57225;61.460;24.060;2023-01-31T05:53:16;97206.50;;;-3.48;100.00
61757;BME280;57225;61.460;24.060;2023-01-31T05:56:02;97207.69;;;-3.38;100.00
61757;BME280;57225;61.460;24.060;2023-01-31T05:58:46;97211.53;;;-3.46;100.00
61757;BME280;57225;61.460;24.060;2023-01-31T06:01:33;97220.88;;;-3.47;100.00
61757;BME280;57225;61.460;24.060;2023-01-31T06:04:18;97213.81;;;-3.62;100.00
61757;BME280;57225;61.460;24.060;2023-01-31T06:07:02;97221.19;;;-3.59;100.00
61757;BME280;57225;61.460;24.060;2023-01-31T06:09:47;97228.19;;;-3.58;100.00
61757;BME280;57225;61.460;24.060;2023-01-31T06:12:31;97232.44;;;-3.65;100.00
61757;BME280;57225;61.460;24.060;2023-01-31T06:15:16;97230.19;;;-3.55;100.00
61757;BME280;57225;61.460;24.060;2023-01-31T06:18:00;97231.28;;;-3.67;100.00
61757;BME280;57225;61.460;24.060;2023-01-31T06:20:45;97239.47;;;-3.60;100.00
61757;BME280;57225;61.460;24.060;2023-01-31T06:23:29;97223.50;;;-3.69;100.00
61757;BME280;57225;61.460;24.060;2023-01-31T06:26:14;97220.03;;;-3.62;100.00
61757;BME280;57225;61.460;24.060;2023-01-31T06:28:58;97229.25;;;-3.77;100.00
61757;BME280;57225;61.460;24.060;2023-01-31T06:31:44;97240.88;;;-3.84;100.00
61757;BME280;57225;61.460;24.060;2023-01-31T06:34:28;97241.25;;;-3.85;100.00
61757;BME280;57225;61.460;24.060;2023-01-31T06:55:52;97261.22;;;-4.18;100.00
61757;BME280;57225;61.460;24.060;2023-01-31T06:58:36;97264.69;;;-4.21;100.00
61757;BME280;57225;61.460;24.060;2023-01-31T07:01:21;97277.13;;;-4.20;100.00
61757;BME280;57225;61.460;24.060;2023-01-31T07:04:07;97261.09;;;-4.32;100.00
61757;BME280;57225;61.460;24.060;2023-01-31T07:06:51;97281.06;;;-4.14;100.00
61757;BME280;57225;61.460;24.060;2023-01-31T07:09:36;97284.94;;;-4.15;100.00
61757;BME280;57225;61.460;24.060;2023-01-31T07:12:20;97283.34;;;-4.20;100.00
61757;BME280;57225;61.460;24.060;2023-01-31T07:15:05;97289.94;;;-4.17;100.00
61757;BME280;57225;61.460;24.060;2023-01-31T07:17:50;97282.16;;;-4.22;100.00
61757;BME280;57225;61.460;24.060;2023-01-31T07:20:40;97288.28;;;-4.32;100.00
61757;BME280;57225;61.460;24.060;2023-01-31T07:23:31;97291.13;;;-4.18;100.00
61757;BME280;57225;61.460;24.060;2023-01-31T07:26:18;97299.81;;;-4.02;100.00
61757;BME280;57225;61.460;24.060;2023-01-31T07:29:03;97289.28;;;-4.03;100.00
61757;BME280;57225;61.460;24.060;2023-01-31T07:31:47;97296.34;;;-3.99;100.00
61757;BME280;57225;61.460;24.060;2023-01-31T07:34:32;97314.09;;;-4.12;100.00
61757;BME280;57225;61.460;24.060;2023-01-31T07:37:16;97316.09;;;-4.06;100.00
61757;BME280;57225;61.460;24.060;2023-01-31T07:40:01;97327.41;;;-4.00;100.00
61757;BME280;57225;61.460;24.060;2023-01-31T07:42:45;97322.66;;;-4.10;100.00
61757;BME280;57225;61.460;24.060;2023-01-31T07:45:29;97324.06;;;-3.83;100.00
61757;BME280;57225;61.460;24.060;2023-01-31T07:48:14;97340.25;;;-3.97;100.00
61757;BME280;57225;61.460;24.060;2023-01-31T07:51:00;97349.69;;;-3.84;100.00
61757;BME280;57225;61.460;24.060;2023-01-31T07:53:45;97355.47;;;-3.92;100.00
61757;BME280;57225;61.460;24.060;2023-01-31T07:56:30;97349.81;;;-3.70;100.00
61757;BME280;57225;61.460;24.060;2023-01-31T07:59:14;97360.69;;;-3.70;100.00
61757;BME280;57225;61.460;24.060;2023-01-31T08:02:00;97356.03;;;-3.66;100.00
61757;BME280;57225;61.460;24.060;2023-01-31T08:05:03;97352.78;;;-3.34;100.00
61757;BME280;57225;61.460;24.060;2023-01-31T08:07:48;97346.94;;;-3.36;100.00
61757;BME280;57225;61.460;24.060;2023-01-31T08:10:52;97351.63;;;-3.33;100.00
61757;BME280;57225;61.460;24.060;2023-01-31T08:13:37;97354.38;;;-3.26;100.00
61757;BME280;57225;61.460;24.060;2023-01-31T08:16:22;97364.91;;;-3.25;100.00
61757;BME280;57225;61.460;24.060;2023-01-31T08:19:06;97368.84;;;-3.18;100.00
61757;BME280;57225;61.460;24.060;2023-01-31T08:21:51;97383.22;;;-3.18;100.00
61757;BME280;57225;61.460;24.060;2023-01-31T08:24:35;97384.47;;;-3.05;100.00
61757;BME280;57225;61.460;24.060;2023-01-31T08:27:20;97378.34;;;-2.88;100.00
61757;BME280;57225;61.460;24.060;2023-01-31T08:30:05;97388.94;;;-2.68;100.00
61757;BME280;57225;61.460;24.060;2023-01-31T08:32:49;97387.34;;;-2.80;100.00
61757;BME280;57225;61.460;24.060;2023-01-31T08:35:34;97388.03;;;-2.90;100.00
61757;BME280;57225;61.460;24.060;2023-01-31T08:38:18;97388.94;;;-2.68;100.00
61757;BME280;57225;61.460;24.060;2023-01-31T08:41:03;97388.53;;;-2.74;100.00
61757;BME280;57225;61.460;24.060;2023-01-31T08:43:47;97400.22;;;-2.70;100.00
61757;BME280;57225;61.460;24.060;2023-01-31T08:46:34;97404.03;;;-2.89;100.00
61757;BME280;57225;61.460;24.060;2023-01-31T08:49:19;97403.78;;;-2.62;100.00
61757;BME280;57225;61.460;24.060;2023-01-31T08:52:03;97413.06;;;-2.70;100.00
61757;BME280;57225;61.460;24.060;2023-01-31T08:54:48;97415.56;;;-2.40;100.00
61757;BME280;57225;61.460;24.060;2023-01-31T08:57:32;97399.91;;;-2.54;100.00
61757;BME280;57225;61.460;24.060;2023-01-31T09:00:17;97406.53;;;-2.55;100.00
61757;BME280;57225;61.460;24.060;2023-01-31T09:03:02;97388.56;;;-2.67;100.00
61757;BME280;57225;61.460;24.060;2023-01-31T09:05:46;97401.47;;;-2.46;100.00
61757;BME280;57225;61.460;24.060;2023-01-31T09:08:31;97405.84;;;-2.34;100.00
61757;BME280;57225;61.460;24.060;2023-01-31T09:11:16;97409.66;;;-2.46;100.00
61757;BME280;57225;61.460;24.060;2023-01-31T09:14:02;97401.06;;;-2.55;100.00
61757;BME280;57225;61.460;24.060;2023-01-31T09:16:46;97384.69;;;-2.62;100.00
61757;BME280;57225;61.460;24.060;2023-01-31T09:19:31;97398.75;;;-2.46;100.00
61757;BME280;57225;61.460;24.060;2023-01-31T09:22:15;97406.66;;;-2.20;100.00
61757;BME280;57225;61.460;24.060;2023-01-31T09:25:00;97391.81;;;-2.36;100.00
61757;BME280;57225;61.460;24.060;2023-01-31T09:27:44;97401.09;;;-2.45;100.00
61757;BME280;57225;61.460;24.060;2023-01-31T09:30:29;97408.22;;;-2.19;100.00
61757;BME280;57225;61.460;24.060;2023-01-31T09:33:14;97402.72;;;-2.29;100.00
61757;BME280;57225;61.460;24.060;2023-01-31T09:36:03;97406.63;;;-2.30;100.00
61757;BME280;57225;61.460;24.060;2023-01-31T09:38:53;97404.31;;;-2.25;100.00
61757;BME280;57225;61.460;24.060;2023-01-31T09:41:49;97400.38;;;-2.31;100.00
61757;BME280;57225;61.460;24.060;2023-01-31T09:44:41;97410.53;;;-2.24;100.00
61757;BME280;57225;61.460;24.060;2023-01-31T09:47:35;97408.56;;;-2.31;100.00
61757;BME280;57225;61.460;24.060;2023-01-31T09:50:29;97405.47;;;-2.29;100.00
61757;BME280;57225;61.460;24.060;2023-01-31T09:53:17;97405.09;;;-2.24;100.00
61757;BME280;57225;61.460;24.060;2023-01-31T09:59:34;97409.00;;;-2.08;100.00
61757;BME280;57225;61.460;24.060;2023-01-31T10:05:50;97419.16;;;-2.05;100.00
61757;BME280;57225;61.460;24.060;2023-01-31T10:09:07;97425.44;;;-1.90;100.00
61757;BME280;57225;61.460;24.060;2023-01-31T10:12:17;97417.19;;;-2.15;100.00
61757;BME280;57225;61.460;24.060;2023-01-31T10:15:12;97418.31;;;-2.30;100.00
61757;BME280;57225;61.460;24.060;2023-01-31T10:18:01;97417.97;;;-2.18;100.00
61757;BME280;57225;61.460;24.060;2023-01-31T10:21:31;97418.72;;;-2.21;100.00
61757;BME280;57225;61.460;24.060;2023-01-31T10:24:01;97416.03;;;-2.07;100.00
61757;BME280;57225;61.460;24.060;2023-01-31T10:26:47;97419.22;;;-1.80;100.00
61757;BME280;57225;61.460;24.060;2023-01-31T10:29:38;97421.59;;;-1.71;100.00
61757;BME280;57225;61.460;24.060;2023-01-31T10:32:32;97420.75;;;-1.82;100.00
61757;BME280;57225;61.460;24.060;2023-01-31T10:35:29;97419.97;;;-1.93;100.00
61757;BME280;57225;61.460;24.060;2023-01-31T10:41:13;97411.03;;;-1.69;100.00
61757;BME280;57225;61.460;24.060;2023-01-31T10:44:06;97419.56;;;-2.03;100.00
61757;BME280;57225;61.460;24.060;2023-01-31T10:46:57;97427.00;;;-1.85;100.00
61757;BME280;57225;61.460;24.060;2023-01-31T10:49:49;97439.53;;;-1.45;100.00
61757;BME280;57225;61.460;24.060;2023-01-31T10:53:04;97448.13;;;-1.22;100.00
61757;BME280;57225;61.460;24.060;2023-01-31T10:58:56;97455.16;;;-1.46;100.00
61757;BME280;57225;61.460;24.060;2023-01-31T11:01:41;97464.13;;;-1.06;100.00
61757;BME280;57225;61.460;24.060;2023-01-31T11:04:36;97461.03;;;-1.15;100.00
61757;BME280;57225;61.460;24.060;2023-01-31T11:07:22;97474.31;;;-1.14;100.00
61757;BME280;57225;61.460;24.060;2023-01-31T11:10:26;97470.75;;;-1.43;100.00
61757;BME280;57225;61.460;24.060;2023-01-31T11:13:16;97471.16;;;-1.34;100.00
61757;BME280;57225;61.460;24.060;2023-01-31T11:16:03;97467.63;;;-1.41;100.00
61757;BME280;57225;61.460;24.060;2023-01-31T11:18:50;97460.25;;;-1.34;100.00
61757;BME280;57225;61.460;24.060;2023-01-31T11:21:36;97459.06;;;-1.29;100.00
61757;BME280;57225;61.460;24.060;2023-01-31T11:24:23;97460.22;;;-1.48;100.00
61757;BME280;57225;61.460;24.060;2023-01-31T11:27:11;97465.28;;;-1.50;100.00
61757;BME280;57225;61.460;24.060;2023-01-31T11:29:58;97464.47;;;-1.57;100.00
61757;BME280;57225;61.460;24.060;2023-01-31T11:32:43;97468.00;;;-1.50;100.00
61757;BME280;57225;61.460;24.060;2023-01-31T11:35:33;97470.75;;;-1.36;100.00
61757;BME280;57225;61.460;24.060;2023-01-31T11:38:22;97486.00;;;-1.20;100.00
61757;BME280;57225;61.460;24.060;2023-01-31T11:41:26;97479.34;;;-1.12;100.00
61757;BME280;57225;61.460;24.060;2023-01-31T11:44:13;97475.06;;;-0.92;99.37
61757;BME280;57225;61.460;24.060;2023-01-31T11:47:02;97477.03;;;-0.96;98.20
61757;BME280;57225;61.460;24.060;2023-01-31T11:49:48;97466.47;;;-1.26;98.44
61757;BME280;57225;61.460;24.060;2023-01-31T11:52:33;97479.75;;;-1.25;100.00
61757;BME280;57225;61.460;24.060;2023-01-31T11:55:18;97468.44;;;-1.27;100.00
61757;BME280;57225;61.460;24.060;2023-01-31T11:58:12;97473.09;;;-1.31;100.00
61757;BME280;57225;61.460;24.060;2023-01-31T12:03:55;97474.66;;;-1.30;100.00
61757;BME280;57225;61.460;24.060;2023-01-31T12:06:41;97473.88;;;-1.37;98.85
61757;BME280;57225;61.460;24.060;2023-01-31T12:09:42;97482.81;;;-1.51;99.48
61757;BME280;57225;61.460;24.060;2023-01-31T12:12:29;97480.88;;;-1.54;99.75
61757;BME280;57225;61.460;24.060;2023-01-31T12:15:17;97487.13;;;-1.43;99.70
61757;BME280;57225;61.460;24.060;2023-01-31T12:18:02;97480.50;;;-1.38;99.27
61757;BME280;57225;61.460;24.060;2023-01-31T12:21:08;97479.34;;;-1.48;100.00
61757;BME280;57225;61.460;24.060;2023-01-31T12:30:13;97489.09;;;-1.47;100.00
61757;BME280;57225;61.460;24.060;2023-01-31T12:43:02;97499.59;;;-1.59;100.00
61757;BME280;57225;61.460;24.060;2023-01-31T12:46:09;97507.78;;;-1.63;100.00
61757;BME280;57225;61.460;24.060;2023-01-31T12:55:19;97516.34;;;-1.57;100.00
61757;BME280;57225;61.460;24.060;2023-01-31T13:10:03;97526.47;;;-1.69;100.00
61757;BME280;57225;61.460;24.060;2023-01-31T13:12:48;97529.19;;;-1.76;100.00
61757;BME280;57225;61.460;24.060;2023-01-31T13:15:45;97519.81;;;-1.82;100.00
61757;BME280;57225;61.460;24.060;2023-01-31T13:18:32;97520.63;;;-1.71;100.00
61757;BME280;57225;61.460;24.060;2023-01-31T13:21:23;97510.81;;;-1.93;100.00
61757;BME280;57225;61.460;24.060;2023-01-31T13:24:17;97511.19;;;-1.94;100.00
61757;BME280;57225;61.460;24.060;2023-01-31T13:27:23;97513.53;;;-1.96;100.00
61757;BME280;57225;61.460;24.060;2023-01-31T13:30:20;97519.69;;;-2.14;100.00
61757;BME280;57225;61.460;24.060;2023-01-31T13:33:22;97521.63;;;-2.18;100.00
61757;BME280;57225;61.460;24.060;2023-01-31T13:36:29;97529.44;;;-2.13;100.00
61757;BME280;57225;61.460;24.060;2023-01-31T13:39:23;97526.66;;;-2.23;100.00
61757;BME280;57225;61.460;24.060;2023-01-31T13:42:14;97528.19;;;-2.29;100.00
61757;BME280;57225;61.460;24.060;2023-01-31T13:45:03;97525.41;;;-2.36;100.00
61757;BME280;57225;61.460;24.060;2023-01-31T13:47:55;97523.03;;;-2.45;100.00
61757;BME280;57225;61.460;24.060;2023-01-31T13:50:45;97514.78;;;-2.52;100.00
61757;BME280;57225;61.460;24.060;2023-01-31T13:53:39;97523.72;;;-2.59;100.00
61757;BME280;57225;61.460;24.060;2023-01-31T13:56:33;97523.22;;;-2.75;100.00
61757;BME280;57225;61.460;24.060;2023-01-31T13:59:24;97524.75;;;-2.77;100.00
61757;BME280;57225;61.460;24.060;2023-01-31T14:02:17;97533.22;;;-2.93;100.00
61757;BME280;57225;61.460;24.060;2023-01-31T14:16:53;97530.59;;;-3.27;100.00
61757;BME280;57225;61.460;24.060;2023-01-31T14:22:36;97548.41;;;-3.36;100.00
61757;BME280;57225;61.460;24.060;2023-01-31T14:25:41;97536.56;;;-3.54;100.00
61757;BME280;57225;61.460;24.060;2023-01-31T14:28:26;97559.88;;;-3.53;100.00
61757;BME280;57225;61.460;24.060;2023-01-31T14:31:13;97562.81;;;-3.69;100.00
61757;BME280;57225;61.460;24.060;2023-01-31T14:33:58;97563.59;;;-3.69;100.00
61757;BME280;57225;61.460;24.060;2023-01-31T14:40:24;97572.41;;;-3.79;100.00
61757;BME280;57225;61.460;24.060;2023-01-31T14:46:20;97580.88;;;-3.87;100.00
61757;BME280;57225;61.460;24.060;2023-01-31T14:55:21;97586.69;;;-3.89;100.00
61757;BME280;57225;61.460;24.060;2023-01-31T14:58:17;97597.66;;;-3.82;100.00
61757;BME280;57225;61.460;24.060;2023-01-31T15:01:05;97593.78;;;-3.81;100.00
61757;BME280;57225;61.460;24.060;2023-01-31T15:03:53;97593.81;;;-3.77;100.00
61757;BME280;57225;61.460;24.060;2023-01-31T15:06:39;97614.53;;;-3.69;100.00
61757;BME280;57225;61.460;24.060;2023-01-31T15:09:35;97610.69;;;-3.65;100.00
61757;BME280;57225;61.460;24.060;2023-01-31T15:12:52;97616.53;;;-3.62;100.00
61757;BME280;57225;61.460;24.060;2023-01-31T15:15:38;97601.66;;;-3.72;100.00
61757;BME280;57225;61.460;24.060;2023-01-31T15:18:24;97613.41;;;-3.65;100.00
61757;BME280;57225;61.460;24.060;2023-01-31T15:21:10;97612.59;;;-3.69;100.00
61757;BME280;57225;61.460;24.060;2023-01-31T15:23:55;97624.72;;;-3.62;100.00
61757;BME280;57225;61.460;24.060;2023-01-31T15:26:41;97632.88;;;-3.62;100.00
61757;BME280;57225;61.460;24.060;2023-01-31T15:32:39;97630.59;;;-3.57;100.00
61757;BME280;57225;61.460;24.060;2023-01-31T15:35:29;97642.28;;;-3.56;100.00
61757;BME280;57225;61.460;24.060;2023-01-31T15:41:24;97642.00;;;-3.48;100.00
61757;BME280;57225;61.460;24.060;2023-01-31T15:44:27;97638.09;;;-3.47;100.00
61757;BME280;57225;61.460;24.060;2023-01-31T15:47:20;97640.88;;;-3.43;100.00
61757;BME280;57225;61.460;24.060;2023-01-31T15:50:16;97643.19;;;-3.45;100.00
61757;BME280;57225;61.460;24.060;2023-01-31T15:53:06;97627.59;;;-3.48;100.00
61757;BME280;57225;61.460;24.060;2023-01-31T15:55:57;97637.81;;;-3.38;100.00
61757;BME280;57225;61.460;24.060;2023-01-31T15:58:45;97633.50;;;-3.43;100.00
61757;BME280;57225;61.460;24.060;2023-01-31T16:01:31;97620.94;;;-3.54;100.00
61757;BME280;57225;61.460;24.060;2023-01-31T16:04:16;97652.41;;;-3.53;100.00
61757;BME280;57225;61.460;24.060;2023-01-31T16:07:00;97636.84;;;-3.56;100.00
61757;BME280;57225;61.460;24.060;2023-01-31T16:09:45;97643.69;;;-3.66;100.00
61757;BME280;57225;61.460;24.060;2023-01-31T16:12:30;97635.41;;;-3.77;100.00
61757;BME280;57225;61.460;24.060;2023-01-31T16:15:21;97631.34;;;-3.90;100.00
61757;BME280;57225;61.460;24.060;2023-01-31T16:18:08;97636.53;;;-3.81;100.00
61757;BME280;57225;61.460;24.060;2023-01-31T16:20:54;97638.72;;;-3.90;100.00
61757;BME280;57225;61.460;24.060;2023-01-31T16:23:41;97626.16;;;-4.02;100.00
61757;BME280;57225;61.460;24.060;2023-01-31T16:26:31;97630.38;;;-4.05;100.00
61757;BME280;57225;61.460;24.060;2023-01-31T16:29:18;97637.66;;;-4.12;100.00
61757;BME280;57225;61.460;24.060;2023-01-31T16:32:14;97632.50;;;-4.21;100.00
61757;BME280;57225;61.460;24.060;2023-01-31T16:35:05;97630.03;;;-4.29;100.00
61757;BME280;57225;61.460;24.060;2023-01-31T16:38:05;97639.63;;;-4.35;100.00
61757;BME280;57225;61.460;24.060;2023-01-31T16:40:52;97643.41;;;-4.43;100.00
61757;BME280;57225;61.460;24.060;2023-01-31T16:43:42;97644.44;;;-4.52;100.00